createdAt,value
2023-11-28T00:02:08.705Z,14.95
2023-11-28T00:04:35.493Z,14.65
2023-11-28T00:07:02.119Z,14.71
2023-11-28T00:09:28.728Z,14.65
2023-11-28T00:11:55.368Z,14.75
2023-11-28T00:14:21.852Z,14.50
2023-11-28T00:16:48.420Z,14.40
2023-11-28T00:19:15.252Z,15.40
2023-11-28T00:21:41.881Z,16.57
2023-11-28T00:24:08.698Z,16.69
2023-11-28T00:26:36.458Z,15.74
2023-11-28T00:29:03.384Z,16.07
2023-11-28T00:31:30.086Z,17.54
2023-11-28T00:33:56.799Z,15.48
2023-11-28T00:36:23.397Z,14.78
2023-11-28T00:38:49.856Z,17.97
2023-11-28T00:41:16.349Z,15.71
2023-11-28T00:43:42.944Z,18.66
2023-11-28T00:46:09.549Z,18.01
2023-11-28T00:48:36.160Z,15.58
2023-11-28T00:51:02.757Z,14.70
2023-11-28T00:53:29.276Z,14.61
2023-11-28T00:55:55.901Z,14.90
2023-11-28T00:58:22.477Z,15.04
2023-11-28T01:00:49.039Z,14.51
2023-11-28T01:03:15.643Z,16.06
2023-11-28T01:05:42.240Z,15.72
2023-11-28T01:08:08.760Z,15.18
2023-11-28T01:10:35.231Z,17.92
2023-11-28T01:13:01.837Z,15.46
2023-11-28T01:15:28.428Z,19.75
2023-11-28T01:17:55.067Z,16.98
2023-11-28T01:20:21.729Z,16.58
2023-11-28T01:22:48.334Z,20.05
2023-11-28T01:25:14.937Z,16.88
2023-11-28T01:27:41.761Z,17.30
2023-11-28T01:30:08.812Z,15.84
2023-11-28T01:32:35.542Z,15.51
2023-11-28T01:35:02.276Z,14.62
2023-11-28T01:37:28.884Z,14.89
2023-11-28T01:39:55.458Z,15.86
2023-11-28T01:42:22.009Z,18.31
2023-11-28T01:44:48.592Z,15.16
2023-11-28T01:47:15.596Z,14.81
2023-11-28T01:49:42.329Z,15.60
2023-11-28T01:52:09.901Z,17.20
2023-11-28T01:54:36.904Z,14.73
2023-11-28T01:57:03.766Z,14.67
2023-11-28T01:59:32.420Z,14.27
2023-11-28T02:01:59.169Z,16.20
2023-11-28T02:04:26.389Z,14.43
2023-11-28T02:06:53.114Z,14.56
2023-11-28T02:09:19.614Z,17.95
2023-11-28T02:11:46.129Z,14.85
2023-11-28T02:14:12.697Z,15.06
2023-11-28T02:16:39.384Z,18.24
2023-11-28T02:19:05.984Z,15.53
2023-11-28T02:21:32.888Z,15.34
2023-11-28T02:23:59.709Z,15.97
2023-11-28T02:26:28.060Z,17.84
2023-11-28T02:28:55.917Z,19.69
2023-11-28T02:31:22.990Z,15.03
2023-11-28T02:33:49.955Z,19.27
2023-11-28T02:36:16.648Z,19.36
2023-11-28T02:38:43.230Z,18.69
2023-11-28T02:41:09.807Z,20.37
2023-11-28T02:43:36.463Z,20.91
2023-11-28T02:46:03.187Z,17.33
2023-11-28T02:48:30.042Z,18.47
2023-11-28T02:50:56.664Z,16.68
2023-11-28T02:53:23.250Z,15.88
2023-11-28T02:55:49.944Z,19.49
2023-11-28T02:58:16.531Z,16.03
2023-11-28T03:00:43.116Z,19.10
2023-11-28T03:03:09.938Z,16.18
2023-11-28T03:05:36.522Z,17.93
2023-11-28T03:08:03.214Z,15.74
2023-11-28T03:10:29.853Z,14.59
2023-11-28T03:12:56.460Z,16.83
2023-11-28T03:15:23.000Z,18.48
2023-11-28T03:17:49.671Z,15.50
2023-11-28T03:20:16.392Z,18.00
2023-11-28T03:22:43.003Z,19.52
2023-11-28T03:25:10.674Z,15.28
2023-11-28T03:27:37.418Z,17.83
2023-11-28T03:30:04.608Z,16.87
2023-11-28T03:32:31.460Z,18.89
2023-11-28T03:34:58.145Z,16.78
2023-11-28T03:37:24.744Z,15.35
2023-11-28T03:39:51.408Z,15.29
2023-11-28T03:42:19.254Z,17.57
2023-11-28T03:44:45.773Z,19.32
2023-11-28T03:47:12.561Z,19.05
2023-11-28T03:49:39.204Z,15.39
2023-11-28T03:52:06.205Z,15.39
2023-11-28T03:54:32.772Z,15.09
2023-11-28T03:56:59.263Z,16.30
2023-11-28T03:59:25.804Z,19.41
2023-11-28T04:01:52.442Z,15.73
2023-11-28T04:04:19.221Z,16.81
2023-11-28T04:06:45.842Z,20.28
2023-11-28T04:09:12.588Z,15.55
2023-11-28T04:11:39.148Z,15.33
2023-11-28T04:14:05.860Z,14.92
2023-11-28T04:16:32.541Z,18.16
2023-11-28T04:18:59.118Z,20.28
2023-11-28T04:21:25.711Z,21.21
2023-11-28T04:23:52.219Z,20.51
2023-11-28T04:26:18.789Z,17.02
2023-11-28T04:28:45.372Z,15.34
2023-11-28T04:31:21.834Z,16.15
2023-11-28T04:33:48.751Z,15.48
2023-11-28T04:36:15.752Z,18.60
2023-11-28T04:38:43.271Z,14.77
2023-11-28T04:41:12.014Z,14.79
2023-11-28T04:43:38.778Z,14.65
2023-11-28T04:46:05.712Z,15.15
2023-11-28T04:48:32.479Z,17.59
2023-11-28T04:50:59.037Z,14.77
2023-11-28T04:53:25.572Z,14.79
2023-11-28T04:55:52.247Z,14.53
2023-11-28T04:58:18.833Z,13.69
2023-11-28T05:00:45.430Z,18.32
2023-11-28T05:03:12.253Z,16.62
2023-11-28T05:05:39.378Z,16.17
2023-11-28T05:08:06.169Z,17.96
2023-11-28T05:10:32.869Z,17.04
2023-11-28T05:12:59.397Z,18.91
2023-11-28T05:15:25.981Z,18.73
2023-11-28T05:17:52.644Z,14.86
2023-11-28T05:20:19.378Z,13.82
2023-11-28T05:22:46.022Z,13.56
2023-11-28T05:25:12.670Z,13.34
2023-11-28T05:27:39.225Z,14.00
2023-11-28T05:30:07.416Z,13.22
2023-11-28T05:32:34.063Z,17.18
2023-11-28T05:35:00.775Z,14.91
2023-11-28T05:37:27.356Z,15.64
2023-11-28T05:39:53.838Z,13.84
2023-11-28T05:42:20.411Z,17.51
2023-11-28T05:44:46.963Z,13.67
2023-11-28T05:47:13.608Z,16.49
2023-11-28T05:49:40.251Z,18.66
2023-11-28T05:52:06.879Z,17.23
2023-11-28T05:54:33.408Z,14.89
2023-11-28T05:57:00.022Z,13.82
2023-11-28T05:59:26.545Z,14.06
2023-11-28T06:02:01.213Z,14.76
2023-11-28T06:04:28.760Z,13.73
2023-11-28T06:06:55.369Z,13.32
2023-11-28T06:09:21.967Z,14.44
2023-11-28T06:11:48.510Z,16.67
2023-11-28T06:14:15.098Z,17.96
2023-11-28T06:16:41.665Z,14.32
2023-11-28T06:19:08.246Z,17.05
2023-11-28T06:21:34.824Z,14.83
2023-11-28T06:24:01.325Z,15.37
2023-11-28T06:26:27.853Z,18.41
2023-11-28T06:28:54.432Z,14.77
2023-11-28T06:31:20.990Z,16.54
2023-11-28T06:33:47.801Z,13.68
2023-11-28T06:36:14.355Z,13.83
2023-11-28T06:38:40.864Z,15.18
2023-11-28T06:41:07.567Z,18.74
2023-11-28T06:43:34.600Z,15.21
2023-11-28T06:46:01.238Z,14.03
2023-11-28T06:48:27.947Z,18.49
2023-11-28T06:50:54.555Z,14.02
2023-11-28T06:53:20.996Z,14.74
2023-11-28T06:55:47.594Z,13.93
2023-11-28T06:58:14.235Z,15.35
2023-11-28T07:00:40.797Z,18.03
2023-11-28T07:03:07.400Z,18.12
2023-11-28T07:05:33.932Z,17.50
2023-11-28T07:08:00.538Z,17.16
2023-11-28T07:10:27.075Z,16.02
2023-11-28T07:12:53.590Z,15.31
2023-11-28T07:15:20.286Z,13.63
2023-11-28T07:17:46.833Z,15.26
2023-11-28T07:20:13.462Z,15.75
2023-11-28T07:22:40.134Z,13.56
2023-11-28T07:25:07.010Z,12.94
2023-11-28T07:27:33.699Z,13.45
2023-11-28T07:30:00.366Z,14.63
2023-11-28T07:32:27.088Z,16.93
2023-11-28T07:34:53.693Z,14.42
2023-11-28T07:37:20.266Z,14.86
2023-11-28T07:39:46.798Z,14.09
2023-11-28T07:42:13.354Z,14.23
2023-11-28T07:44:39.942Z,14.25
2023-11-28T07:47:06.516Z,14.66
2023-11-28T07:49:33.096Z,14.75
2023-11-28T07:51:59.641Z,18.73
2023-11-28T07:54:26.252Z,15.90
2023-11-28T07:56:52.855Z,15.29
2023-11-28T07:59:19.531Z,15.69
2023-11-28T08:01:46.223Z,16.18
2023-11-28T08:04:12.953Z,16.45
2023-11-28T08:06:39.605Z,16.78
2023-11-28T08:09:06.102Z,17.49
2023-11-28T08:11:32.680Z,21.07
2023-11-28T08:13:59.340Z,18.02
2023-11-28T08:16:25.984Z,17.58
2023-11-28T08:18:53.315Z,17.43
2023-11-28T08:21:19.856Z,17.92
2023-11-28T08:23:46.601Z,17.96
2023-11-28T08:26:13.290Z,23.08
2023-11-28T08:28:40.010Z,22.52
2023-11-28T08:31:08.592Z,22.67
2023-11-28T08:33:35.311Z,18.09
2023-11-28T08:36:02.053Z,19.09
2023-11-28T08:38:31.166Z,21.10
2023-11-28T08:40:57.719Z,18.43
2023-11-28T08:43:24.456Z,21.61
2023-11-28T08:45:51.046Z,21.22
2023-11-28T08:48:17.634Z,17.60
2023-11-28T08:50:44.247Z,17.52
2023-11-28T08:53:10.926Z,17.92
2023-11-28T08:55:37.542Z,18.83
2023-11-28T08:58:04.090Z,20.63
2023-11-28T09:00:30.628Z,18.20
2023-11-28T09:02:57.420Z,19.98
2023-11-28T09:05:24.122Z,20.71
2023-11-28T09:07:50.819Z,21.97
2023-11-28T09:10:17.526Z,23.67
2023-11-28T09:12:44.058Z,23.68
2023-11-28T09:15:10.954Z,24.53
2023-11-28T09:17:37.596Z,25.11
2023-11-28T09:20:04.725Z,25.36
2023-11-28T09:22:31.392Z,25.24
2023-11-28T09:24:58.064Z,22.88
2023-11-28T09:27:24.619Z,24.35
2023-11-28T09:29:53.494Z,22.24
2023-11-28T09:32:21.284Z,22.40
2023-11-28T09:34:47.980Z,26.35
2023-11-28T09:37:15.064Z,25.38
2023-11-28T09:39:41.688Z,23.36
2023-11-28T09:42:11.871Z,23.20
2023-11-28T09:44:41.440Z,24.56
2023-11-28T09:47:09.384Z,24.27
2023-11-28T09:49:42.955Z,24.19
2023-11-28T09:52:10.954Z,23.28
2023-11-28T09:54:37.749Z,26.03
2023-11-28T09:57:06.457Z,23.27
2023-11-28T09:59:44.860Z,22.69
2023-11-28T10:02:16.216Z,25.04
2023-11-28T10:04:43.499Z,24.02
2023-11-28T10:07:12.587Z,27.20
2023-11-28T10:09:42.596Z,24.46
2023-11-28T10:12:09.541Z,22.95
2023-11-28T10:14:39.799Z,22.49
2023-11-28T10:17:06.431Z,23.01
2023-11-28T10:19:34.052Z,23.29
2023-11-28T10:22:04.107Z,23.33
2023-11-28T10:24:30.675Z,22.43
2023-11-28T10:26:57.345Z,22.82
2023-11-28T10:29:23.888Z,22.81
2023-11-28T10:31:50.532Z,23.32
2023-11-28T10:34:17.132Z,24.25
2023-11-28T10:36:47.786Z,22.97
2023-11-28T10:39:16.161Z,27.58
2023-11-28T10:41:42.856Z,28.68
2023-11-28T10:44:09.663Z,28.95
2023-11-28T10:46:38.627Z,27.45
2023-11-28T10:49:05.441Z,25.37
2023-11-28T10:51:33.337Z,28.52
2023-11-28T10:54:07.432Z,26.55
2023-11-28T10:56:47.126Z,29.10
2023-11-28T10:59:37.853Z,28.57
2023-11-28T11:02:05.988Z,28.01
2023-11-28T11:04:33.516Z,26.34
2023-11-28T11:07:00.666Z,26.39
2023-11-28T11:09:28.255Z,27.53
2023-11-28T11:11:57.089Z,28.33
2023-11-28T11:15:01.460Z,26.85
2023-11-28T11:17:44.422Z,28.37
2023-11-28T11:20:13.967Z,25.80
2023-11-28T11:22:45.488Z,24.63
2023-11-28T11:25:12.136Z,24.82
2023-11-28T11:27:38.785Z,25.08
2023-11-28T11:30:06.233Z,26.11
2023-11-28T11:32:35.706Z,25.68
2023-11-28T11:35:02.879Z,25.42
2023-11-28T11:37:33.970Z,27.54
2023-11-28T11:40:02.244Z,26.26
2023-11-28T11:42:29.693Z,26.01
2023-11-28T11:44:58.288Z,25.30
2023-11-28T11:47:26.758Z,24.23
2023-11-28T11:49:55.706Z,27.40
2023-11-28T11:52:22.984Z,27.20
2023-11-28T11:54:49.604Z,26.95
2023-11-28T11:57:16.182Z,25.31
2023-11-28T11:59:42.856Z,25.93
2023-11-28T12:02:09.753Z,25.74
2023-11-28T12:04:42.359Z,25.84
2023-11-28T12:07:11.267Z,23.60
2023-11-28T12:09:37.930Z,23.07
2023-11-28T12:12:04.654Z,24.21
2023-11-28T12:14:32.271Z,28.07
2023-11-28T12:17:00.073Z,25.56
2023-11-28T12:19:26.645Z,25.26
2023-11-28T12:21:53.242Z,24.06
2023-11-28T12:24:19.759Z,27.05
2023-11-28T12:26:47.071Z,26.28
2023-11-28T12:29:13.738Z,26.49
2023-11-28T12:31:40.647Z,24.22
2023-11-28T12:34:07.535Z,23.24
2023-11-28T12:36:34.392Z,25.04
2023-11-28T12:39:00.998Z,23.33
2023-11-28T12:41:35.511Z,22.74
2023-11-28T12:44:02.249Z,23.57
2023-11-28T12:46:31.874Z,23.66
2023-11-28T12:48:59.013Z,23.93
2023-11-28T12:51:25.615Z,23.29
2023-11-28T12:53:52.155Z,23.29
2023-11-28T12:56:18.781Z,23.39
2023-11-28T12:58:45.329Z,25.30
2023-11-28T13:01:11.896Z,25.54
2023-11-28T13:03:38.620Z,22.62
2023-11-28T13:06:05.458Z,23.00
2023-11-28T13:08:32.030Z,22.57
2023-11-28T13:10:58.638Z,21.76
2023-11-28T13:13:25.269Z,21.88
2023-11-28T13:15:51.906Z,21.98
2023-11-28T13:18:18.571Z,23.25
2023-11-28T13:20:45.234Z,22.16
2023-11-28T13:23:11.949Z,22.69
2023-11-28T13:25:38.587Z,23.77
2023-11-28T13:28:05.322Z,23.11
2023-11-28T13:30:31.944Z,22.80
2023-11-28T13:32:58.557Z,23.06
2023-11-28T13:35:25.163Z,26.07
2023-11-28T13:37:51.887Z,24.98
2023-11-28T13:40:18.403Z,23.53
2023-11-28T13:42:44.953Z,23.19
2023-11-28T13:45:11.513Z,25.39
2023-11-28T13:47:38.162Z,23.32
2023-11-28T13:50:05.037Z,23.31
2023-11-28T13:52:31.639Z,25.13
2023-11-28T13:54:58.254Z,24.97
2023-11-28T13:57:24.856Z,27.79
2023-11-28T13:59:51.482Z,26.98
2023-11-28T14:02:18.096Z,26.26
2023-11-28T14:04:44.571Z,26.63
2023-11-28T14:07:11.073Z,26.98
2023-11-28T14:09:37.633Z,26.32
2023-11-28T14:12:04.420Z,26.80
2023-11-28T14:14:42.810Z,27.17
2023-11-28T14:17:17.006Z,26.33
2023-11-28T14:19:43.589Z,24.21
2023-11-28T14:22:10.324Z,23.28
2023-11-28T14:24:36.855Z,22.76
2023-11-28T14:27:04.590Z,22.34
2023-11-28T14:29:32.542Z,22.37
2023-11-28T14:31:59.082Z,21.86
2023-11-28T14:34:26.430Z,24.26
2023-11-28T14:36:53.036Z,24.54
2023-11-28T14:39:19.699Z,24.89
2023-11-28T14:41:46.201Z,23.25
2023-11-28T14:44:12.801Z,26.66
2023-11-28T14:46:39.468Z,27.20
2023-11-28T14:49:06.022Z,27.44
2023-11-28T14:51:32.528Z,25.32
2023-11-28T14:53:59.207Z,26.54
2023-11-28T14:56:25.811Z,22.99
2023-11-28T14:58:52.401Z,23.42
2023-11-28T15:01:19.971Z,26.56
2023-11-28T15:03:46.606Z,25.51
2023-11-28T15:06:13.319Z,24.51
2023-11-28T15:08:42.968Z,23.84
2023-11-28T15:11:12.031Z,23.02
2023-11-28T15:13:39.600Z,22.04
2023-11-28T15:16:07.093Z,23.14
2023-11-28T15:18:33.755Z,20.65
2023-11-28T15:21:01.211Z,23.72
2023-11-28T15:23:27.862Z,20.53
2023-11-28T15:25:54.463Z,21.39
2023-11-28T15:28:21.013Z,24.37
2023-11-28T15:30:47.636Z,22.98
2023-11-28T15:33:14.432Z,24.34
2023-11-28T15:35:41.193Z,21.26
2023-11-28T15:38:07.825Z,23.99
2023-11-28T15:40:35.768Z,19.93
2023-11-28T15:43:02.626Z,19.74
2023-11-28T15:45:29.217Z,19.47
2023-11-28T15:47:55.804Z,19.90
2023-11-28T15:50:22.376Z,19.49
2023-11-28T15:52:49.004Z,18.85
2023-11-28T15:55:15.725Z,17.83
2023-11-28T15:57:42.269Z,18.67
2023-11-28T16:00:09.203Z,20.43
2023-11-28T16:02:36.005Z,23.25
2023-11-28T16:05:03.098Z,19.50
2023-11-28T16:07:29.748Z,19.45
2023-11-28T16:09:56.312Z,21.29
2023-11-28T16:12:22.967Z,17.76
2023-11-28T16:14:50.815Z,17.46
2023-11-28T16:17:17.756Z,18.23
2023-11-28T16:19:44.607Z,21.42
2023-11-28T16:22:11.129Z,17.27
2023-11-28T16:24:37.632Z,16.73
2023-11-28T16:27:04.397Z,16.33
2023-11-28T16:29:30.950Z,20.72
2023-11-28T16:31:57.512Z,17.36
2023-11-28T16:34:24.036Z,17.86
2023-11-28T16:36:50.607Z,16.12
2023-11-28T16:39:17.211Z,16.29
2023-11-28T16:41:43.734Z,18.24
2023-11-28T16:44:10.371Z,18.09
2023-11-28T16:46:37.712Z,18.37
2023-11-28T16:49:04.777Z,18.99
2023-11-28T16:51:31.360Z,17.38
2023-11-28T16:53:57.931Z,16.87
2023-11-28T16:56:24.935Z,16.56
2023-11-28T16:58:52.172Z,16.54
2023-11-28T17:01:18.881Z,16.70
2023-11-28T17:03:45.593Z,17.33
2023-11-28T17:06:13.409Z,20.65
2023-11-28T17:08:40.774Z,20.19
2023-11-28T17:11:07.377Z,21.44
2023-11-28T17:13:34.041Z,21.62
2023-11-28T17:16:00.549Z,19.00
2023-11-28T17:18:27.124Z,17.72
2023-11-28T17:20:53.634Z,19.59
2023-11-28T17:23:20.190Z,17.66
2023-11-28T17:25:46.750Z,18.32
2023-11-28T17:28:13.353Z,20.29
2023-11-28T17:30:40.021Z,18.33
2023-11-28T17:33:06.609Z,19.20
2023-11-28T17:35:33.227Z,16.64
2023-11-28T17:37:59.810Z,20.69
2023-11-28T17:40:26.351Z,20.91
2023-11-28T17:42:52.812Z,17.09
2023-11-28T17:45:19.348Z,18.96
2023-11-28T17:47:46.099Z,17.63
2023-11-28T17:50:12.748Z,17.05
2023-11-28T17:52:39.337Z,16.06
2023-11-28T17:55:06.594Z,18.15
2023-11-28T17:57:33.195Z,18.05
2023-11-28T18:00:00.009Z,16.70
2023-11-28T18:02:26.808Z,19.57
2023-11-28T18:04:53.591Z,17.74
2023-11-28T18:07:20.121Z,15.71
2023-11-28T18:09:46.623Z,15.58
2023-11-28T18:12:13.197Z,17.35
2023-11-28T18:14:39.757Z,16.35
2023-11-28T18:17:06.464Z,16.44
2023-11-28T18:19:33.181Z,17.54
2023-11-28T18:22:00.275Z,18.60
2023-11-28T18:24:26.845Z,17.18
2023-11-28T18:26:53.521Z,16.11
2023-11-28T18:29:20.103Z,15.87
2023-11-28T18:31:47.104Z,15.45
2023-11-28T18:34:14.054Z,15.34
2023-11-28T18:36:40.837Z,15.64
2023-11-28T18:39:07.577Z,15.58
2023-11-28T18:41:38.414Z,15.09
2023-11-28T18:44:07.175Z,14.84
2023-11-28T18:46:34.470Z,14.60
2023-11-28T18:49:01.317Z,14.76
2023-11-28T18:51:29.221Z,14.75
2023-11-28T18:53:56.845Z,15.74
2023-11-28T18:56:25.215Z,14.91
2023-11-28T18:58:51.721Z,14.51
2023-11-28T19:01:19.894Z,14.11
2023-11-28T19:03:48.234Z,14.06
2023-11-28T19:06:16.036Z,14.55
2023-11-28T19:08:44.371Z,17.12
2023-11-28T19:11:11.623Z,14.38
2023-11-28T19:13:39.021Z,14.93
2023-11-28T19:16:06.420Z,16.92
2023-11-28T19:18:33.285Z,14.03
2023-11-28T19:21:00.876Z,15.41
2023-11-28T19:23:27.991Z,14.57
2023-11-28T19:25:54.749Z,18.45
2023-11-28T19:28:21.416Z,18.63
2023-11-28T19:30:48.031Z,15.17
2023-11-28T19:33:14.658Z,17.10
2023-11-28T19:35:41.283Z,14.62
2023-11-28T19:38:07.812Z,14.76
2023-11-28T19:40:34.483Z,16.46
2023-11-28T19:43:01.099Z,16.93
2023-11-28T19:45:27.866Z,14.31
2023-11-28T19:47:54.639Z,12.72
2023-11-28T19:50:21.317Z,13.00
2023-11-28T19:52:47.803Z,17.08
2023-11-28T19:55:16.992Z,14.45
2023-11-28T19:57:43.633Z,14.86
2023-11-28T20:00:10.805Z,13.63
2023-11-28T20:02:40.738Z,14.84
2023-11-28T20:05:07.763Z,13.33
2023-11-28T20:07:34.460Z,13.34
2023-11-28T20:10:01.082Z,13.16
2023-11-28T20:12:27.879Z,13.35
2023-11-28T20:14:54.443Z,13.06
2023-11-28T20:17:21.001Z,12.91
2023-11-28T20:19:47.609Z,12.97
2023-11-28T20:22:15.337Z,14.01
2023-11-28T20:24:42.386Z,13.42
2023-11-28T20:27:09.049Z,13.07
2023-11-28T20:29:35.630Z,12.76
2023-11-28T20:32:02.205Z,15.30
2023-11-28T20:34:29.133Z,12.69
2023-11-28T20:37:10.102Z,12.93
2023-11-28T20:39:42.765Z,12.54
2023-11-28T20:42:09.349Z,12.49
2023-11-28T20:44:36.541Z,12.61
2023-11-28T20:47:03.215Z,12.34
2023-11-28T20:49:29.879Z,12.24
2023-11-28T20:51:56.540Z,13.10
2023-11-28T20:54:24.004Z,17.03
2023-11-28T20:56:50.688Z,16.56
2023-11-28T20:59:17.253Z,15.76
2023-11-28T21:01:44.052Z,13.48
2023-11-28T21:04:10.636Z,15.46
2023-11-28T21:06:37.248Z,15.10
2023-11-28T21:09:04.123Z,14.05
2023-11-28T21:11:30.714Z,15.54
2023-11-28T21:13:57.292Z,13.89
2023-11-28T21:16:23.861Z,14.04
2023-11-28T21:18:50.418Z,15.28
2023-11-28T21:21:26.890Z,13.87
2023-11-28T21:23:53.840Z,14.07
2023-11-28T21:26:20.406Z,14.22
2023-11-28T21:28:46.929Z,14.20
2023-11-28T21:31:13.647Z,13.90
2023-11-28T21:33:40.257Z,13.85
2023-11-28T21:36:10.280Z,14.00
2023-11-28T21:38:36.964Z,13.68
2023-11-28T21:41:03.673Z,16.48
2023-11-28T21:43:30.278Z,15.00
2023-11-28T21:45:56.836Z,13.68
2023-11-28T21:48:27.806Z,15.19
2023-11-28T21:50:55.228Z,13.34
2023-11-28T21:53:21.848Z,13.10
2023-11-28T21:55:48.477Z,13.13
2023-11-28T21:58:14.956Z,12.88
2023-11-28T22:00:41.435Z,13.08
2023-11-28T22:03:08.482Z,12.90
2023-11-28T22:05:35.154Z,13.03
2023-11-28T22:08:01.747Z,13.27
2023-11-28T22:10:28.426Z,12.91
2023-11-28T22:12:55.082Z,16.78
2023-11-28T22:15:21.639Z,14.27
2023-11-28T22:17:48.707Z,13.43
2023-11-28T22:20:15.453Z,12.84
2023-11-28T22:22:42.034Z,13.27
2023-11-28T22:25:08.579Z,13.18
2023-11-28T22:27:36.779Z,13.51
2023-11-28T22:30:03.961Z,13.66
2023-11-28T22:32:30.648Z,13.98
2023-11-28T22:34:57.276Z,13.84
2023-11-28T22:37:23.839Z,13.23
2023-11-28T22:39:50.423Z,13.17
2023-11-28T22:42:16.976Z,13.08
2023-11-28T22:44:43.527Z,14.87
2023-11-28T22:47:10.827Z,13.67
2023-11-28T22:49:38.649Z,13.73
2023-11-28T22:52:06.165Z,13.05
2023-11-28T22:54:33.515Z,14.93
2023-11-28T22:57:00.336Z,13.13
2023-11-28T22:59:26.962Z,14.39
2023-11-28T23:01:53.658Z,12.97
2023-11-28T23:04:20.323Z,13.99
2023-11-28T23:06:46.985Z,12.20
2023-11-28T23:09:13.683Z,12.80
2023-11-28T23:11:40.373Z,12.67
2023-11-28T23:14:07.005Z,15.58
2023-11-28T23:16:33.735Z,14.27
2023-11-28T23:19:00.311Z,13.59
2023-11-28T23:21:26.803Z,12.26
2023-11-28T23:23:53.868Z,11.93
2023-11-28T23:26:22.039Z,11.73
2023-11-28T23:28:52.163Z,11.68
2023-11-28T23:31:18.786Z,12.23
2023-11-28T23:33:45.357Z,11.77
2023-11-28T23:36:12.714Z,11.93
2023-11-28T23:38:39.430Z,11.94
2023-11-28T23:41:06.202Z,11.66
2023-11-28T23:43:32.838Z,12.92
2023-11-28T23:45:59.456Z,11.51
2023-11-28T23:48:26.079Z,11.97
2023-11-28T23:50:52.815Z,15.57
2023-11-28T23:53:19.474Z,13.81
2023-11-28T23:55:46.139Z,15.02
2023-11-28T23:58:13.283Z,13.16
